sensor_id;sensor_type;location;lat;lon;timestamp;temperature;humidity
19880;DHT22;10102;50.828;4.416;2022-12-07T00:00:30;7.40;99.90
19880;DHT22;10102;50.828;4.416;2022-12-07T00:02:56;7.40;99.90
19880;DHT22;10102;50.828;4.416;2022-12-07T00:05:21;7.50;99.90
19880;DHT22;10102;50.828;4.416;2022-12-07T00:07:47;8.10;99.90
19880;DHT22;10102;50.828;4.416;2022-12-07T00:10:13;7.40;99.90
19880;DHT22;10102;50.828;4.416;2022-12-07T00:12:38;7.30;99.90
19880;DHT22;10102;50.828;4.416;2022-12-07T00:15:04;7.20;99.90
19880;DHT22;10102;50.828;4.416;2022-12-07T00:17:30;7.20;99.90
19880;DHT22;10102;50.828;4.416;2022-12-07T00:19:56;7.20;99.90
19880;DHT22;10102;50.828;4.416;2022-12-07T00:22:21;7.00;99.90
19880;DHT22;10102;50.828;4.416;2022-12-07T00:24:47;7.10;99.90
19880;DHT22;10102;50.828;4.416;2022-12-07T00:27:12;7.00;99.90
19880;DHT22;10102;50.828;4.416;2022-12-07T00:29:38;6.90;99.90
19880;DHT22;10102;50.828;4.416;2022-12-07T00:32:04;6.90;99.90
19880;DHT22;10102;50.828;4.416;2022-12-07T00:34:29;6.80;99.90
19880;DHT22;10102;50.828;4.416;2022-12-07T00:36:55;6.80;99.90
19880;DHT22;10102;50.828;4.416;2022-12-07T00:39:21;6.70;99.90
19880;DHT22;10102;50.828;4.416;2022-12-07T00:41:46;6.80;99.90
19880;DHT22;10102;50.828;4.416;2022-12-07T00:44:12;6.80;99.90
19880;DHT22;10102;50.828;4.416;2022-12-07T00:46:38;6.80;99.90
19880;DHT22;10102;50.828;4.416;2022-12-07T00:49:04;6.70;99.90
19880;DHT22;10102;50.828;4.416;2022-12-07T00:51:29;6.80;99.90
19880;DHT22;10102;50.828;4.416;2022-12-07T00:56:23;6.80;99.90
19880;DHT22;10102;50.828;4.416;2022-12-07T00:59:00;6.80;99.90
19880;DHT22;10102;50.828;4.416;2022-12-07T01:01:27;6.70;99.90
19880;DHT22;10102;50.828;4.416;2022-12-07T01:03:53;7.00;99.90
19880;DHT22;10102;50.828;4.416;2022-12-07T01:06:21;7.10;99.90
19880;DHT22;10102;50.828;4.416;2022-12-07T01:08:47;6.70;99.90
19880;DHT22;10102;50.828;4.416;2022-12-07T01:11:17;6.70;99.90
19880;DHT22;10102;50.828;4.416;2022-12-07T01:13:44;6.60;99.90
19880;DHT22;10102;50.828;4.416;2022-12-07T01:16:13;6.60;99.90
19880;DHT22;10102;50.828;4.416;2022-12-07T01:18:40;6.70;99.90
19880;DHT22;10102;50.828;4.416;2022-12-07T01:21:09;6.60;99.90
19880;DHT22;10102;50.828;4.416;2022-12-07T01:23:36;6.70;99.90
19880;DHT22;10102;50.828;4.416;2022-12-07T01:26:05;6.50;99.90
19880;DHT22;10102;50.828;4.416;2022-12-07T01:28:31;6.60;99.90
19880;DHT22;10102;50.828;4.416;2022-12-07T01:31:09;6.60;99.90
19880;DHT22;10102;50.828;4.416;2022-12-07T01:33:37;6.50;99.90
19880;DHT22;10102;50.828;4.416;2022-12-07T01:36:16;6.50;99.90
19880;DHT22;10102;50.828;4.416;2022-12-07T01:38:42;6.40;99.90
19880;DHT22;10102;50.828;4.416;2022-12-07T01:41:09;7.40;99.90
19880;DHT22;10102;50.828;4.416;2022-12-07T01:43:35;6.50;99.90
19880;DHT22;10102;50.828;4.416;2022-12-07T01:46:03;6.50;99.90
19880;DHT22;10102;50.828;4.416;2022-12-07T01:48:34;6.40;99.90
19880;DHT22;10102;50.828;4.416;2022-12-07T01:51:05;6.40;99.90
19880;DHT22;10102;50.828;4.416;2022-12-07T01:53:35;6.40;99.90
19880;DHT22;10102;50.828;4.416;2022-12-07T01:56:02;6.40;99.90
19880;DHT22;10102;50.828;4.416;2022-12-07T01:58:28;6.40;99.90
19880;DHT22;10102;50.828;4.416;2022-12-07T02:00:54;6.30;99.90
19880;DHT22;10102;50.828;4.416;2022-12-07T02:03:27;6.30;99.90
19880;DHT22;10102;50.828;4.416;2022-12-07T02:05:55;6.40;99.90
19880;DHT22;10102;50.828;4.416;2022-12-07T02:08:21;6.50;99.90
19880;DHT22;10102;50.828;4.416;2022-12-07T02:10:47;6.60;99.90
19880;DHT22;10102;50.828;4.416;2022-12-07T02:13:16;6.60;99.90
19880;DHT22;10102;50.828;4.416;2022-12-07T02:24:13;6.70;99.90
19880;DHT22;10102;50.828;4.416;2022-12-07T02:26:55;6.80;99.90
19880;DHT22;10102;50.828;4.416;2022-12-07T02:30:19;6.80;99.90
19880;DHT22;10102;50.828;4.416;2022-12-07T02:32:33;7.40;99.90
19880;DHT22;10102;50.828;4.416;2022-12-07T02:38:02;7.00;99.90
19880;DHT22;10102;50.828;4.416;2022-12-07T02:40:38;7.20;99.90
19880;DHT22;10102;50.828;4.416;2022-12-07T02:45:41;7.10;99.90
19880;DHT22;10102;50.828;4.416;2022-12-07T02:48:08;7.30;99.90
19880;DHT22;10102;50.828;4.416;2022-12-07T02:50:35;7.00;99.90
19880;DHT22;10102;50.828;4.416;2022-12-07T02:53:01;7.00;99.90
19880;DHT22;10102;50.828;4.416;2022-12-07T02:55:37;7.00;99.90
19880;DHT22;10102;50.828;4.416;2022-12-07T03:00:34;6.80;99.90
19880;DHT22;10102;50.828;4.416;2022-12-07T03:03:09;6.80;99.90
19880;DHT22;10102;50.828;4.416;2022-12-07T03:11:03;6.90;99.90
19880;DHT22;10102;50.828;4.416;2022-12-07T03:13:49;6.70;99.90
19880;DHT22;10102;50.828;4.416;2022-12-07T03:16:19;6.70;99.90
19880;DHT22;10102;50.828;4.416;2022-12-07T03:18:56;6.80;99.90
19880;DHT22;10102;50.828;4.416;2022-12-07T03:21:36;6.80;99.90
19880;DHT22;10102;50.828;4.416;2022-12-07T03:24:07;6.40;99.90
19880;DHT22;10102;50.828;4.416;2022-12-07T03:26:41;6.60;99.90
19880;DHT22;10102;50.828;4.416;2022-12-07T03:29:17;6.60;99.90
19880;DHT22;10102;50.828;4.416;2022-12-07T03:31:49;6.90;99.90
19880;DHT22;10102;50.828;4.416;2022-12-07T03:34:37;6.50;99.90
19880;DHT22;10102;50.828;4.416;2022-12-07T03:37:10;6.50;99.90
19880;DHT22;10102;50.828;4.416;2022-12-07T03:39:59;6.60;99.90
19880;DHT22;10102;50.828;4.416;2022-12-07T03:42:28;6.70;99.90
19880;DHT22;10102;50.828;4.416;2022-12-07T03:44:54;6.50;99.90
19880;DHT22;10102;50.828;4.416;2022-12-07T03:47:29;6.40;99.90
19880;DHT22;10102;50.828;4.416;2022-12-07T03:50:10;7.20;99.90
19880;DHT22;10102;50.828;4.416;2022-12-07T03:52:56;6.30;99.90
19880;DHT22;10102;50.828;4.416;2022-12-07T03:55:36;6.40;99.90
19880;DHT22;10102;50.828;4.416;2022-12-07T03:58:05;6.30;99.90
19880;DHT22;10102;50.828;4.416;2022-12-07T04:00:32;6.50;99.90
19880;DHT22;10102;50.828;4.416;2022-12-07T04:02:58;6.30;99.90
19880;DHT22;10102;50.828;4.416;2022-12-07T04:05:24;6.30;99.90
19880;DHT22;10102;50.828;4.416;2022-12-07T04:07:49;6.30;99.90
19880;DHT22;10102;50.828;4.416;2022-12-07T04:10:15;6.20;99.90
19880;DHT22;10102;50.828;4.416;2022-12-07T04:15:07;6.50;99.90
19880;DHT22;10102;50.828;4.416;2022-12-07T04:17:33;6.20;99.90
19880;DHT22;10102;50.828;4.416;2022-12-07T04:19:59;6.30;99.90
19880;DHT22;10102;50.828;4.416;2022-12-07T04:22:24;6.20;99.90
19880;DHT22;10102;50.828;4.416;2022-12-07T04:24:50;6.20;99.90
19880;DHT22;10102;50.828;4.416;2022-12-07T04:27:15;6.10;99.90
19880;DHT22;10102;50.828;4.416;2022-12-07T04:29:41;6.10;99.90
19880;DHT22;10102;50.828;4.416;2022-12-07T04:32:07;6.20;99.90
19880;DHT22;10102;50.828;4.416;2022-12-07T04:34:33;7.00;99.90
19880;DHT22;10102;50.828;4.416;2022-12-07T04:36:58;6.20;99.90
19880;DHT22;10102;50.828;4.416;2022-12-07T04:39:30;6.10;99.90
19880;DHT22;10102;50.828;4.416;2022-12-07T04:41:57;6.10;99.90
19880;DHT22;10102;50.828;4.416;2022-12-07T04:44:24;6.20;99.90
19880;DHT22;10102;50.828;4.416;2022-12-07T04:46:50;6.20;99.90
19880;DHT22;10102;50.828;4.416;2022-12-07T04:49:16;6.20;99.90
19880;DHT22;10102;50.828;4.416;2022-12-07T04:51:43;6.20;99.90
19880;DHT22;10102;50.828;4.416;2022-12-07T04:54:09;6.30;99.90
19880;DHT22;10102;50.828;4.416;2022-12-07T04:56:35;7.60;99.90
19880;DHT22;10102;50.828;4.416;2022-12-07T04:59:02;6.30;99.90
19880;DHT22;10102;50.828;4.416;2022-12-07T05:01:28;6.30;99.90
19880;DHT22;10102;50.828;4.416;2022-12-07T05:03:53;6.30;99.90
19880;DHT22;10102;50.828;4.416;2022-12-07T05:06:19;6.20;99.90
19880;DHT22;10102;50.828;4.416;2022-12-07T05:08:45;6.20;99.90
19880;DHT22;10102;50.828;4.416;2022-12-07T05:11:12;6.10;99.90
19880;DHT22;10102;50.828;4.416;2022-12-07T05:16:22;6.20;99.90
19880;DHT22;10102;50.828;4.416;2022-12-07T05:18:48;6.20;99.90
19880;DHT22;10102;50.828;4.416;2022-12-07T05:21:14;6.10;99.90
19880;DHT22;10102;50.828;4.416;2022-12-07T05:23:39;6.20;99.90
19880;DHT22;10102;50.828;4.416;2022-12-07T05:26:05;6.10;99.90
19880;DHT22;10102;50.828;4.416;2022-12-07T05:28:31;7.20;99.90
19880;DHT22;10102;50.828;4.416;2022-12-07T05:30:56;6.40;99.90
19880;DHT22;10102;50.828;4.416;2022-12-07T05:33:22;6.20;99.90
19880;DHT22;10102;50.828;4.416;2022-12-07T05:35:48;6.30;99.90
19880;DHT22;10102;50.828;4.416;2022-12-07T05:38:13;6.40;99.90
19880;DHT22;10102;50.828;4.416;2022-12-07T05:40:39;6.50;99.90
19880;DHT22;10102;50.828;4.416;2022-12-07T05:43:04;6.50;99.90
19880;DHT22;10102;50.828;4.416;2022-12-07T05:45:30;6.60;99.90
19880;DHT22;10102;50.828;4.416;2022-12-07T05:47:56;6.60;99.90
19880;DHT22;10102;50.828;4.416;2022-12-07T05:50:21;6.50;99.90
19880;DHT22;10102;50.828;4.416;2022-12-07T05:52:47;6.50;99.90
19880;DHT22;10102;50.828;4.416;2022-12-07T05:55:13;6.40;99.90
19880;DHT22;10102;50.828;4.416;2022-12-07T05:57:39;6.50;99.90
19880;DHT22;10102;50.828;4.416;2022-12-07T06:00:05;6.50;99.90
19880;DHT22;10102;50.828;4.416;2022-12-07T06:02:31;6.40;99.90
19880;DHT22;10102;50.828;4.416;2022-12-07T06:04:56;6.30;99.90
19880;DHT22;10102;50.828;4.416;2022-12-07T06:07:22;6.40;99.90
19880;DHT22;10102;50.828;4.416;2022-12-07T06:09:48;6.20;99.90
19880;DHT22;10102;50.828;4.416;2022-12-07T06:14:58;5.20;99.90
19880;DHT22;10102;50.828;4.416;2022-12-07T06:19:50;6.30;99.90
19880;DHT22;10102;50.828;4.416;2022-12-07T06:22:17;6.50;99.90
19880;DHT22;10102;50.828;4.416;2022-12-07T06:24:43;6.60;99.90
19880;DHT22;10102;50.828;4.416;2022-12-07T06:27:10;7.40;99.90
19880;DHT22;10102;50.828;4.416;2022-12-07T06:29:36;6.40;99.90
19880;DHT22;10102;50.828;4.416;2022-12-07T06:32:03;6.40;99.90
19880;DHT22;10102;50.828;4.416;2022-12-07T06:34:30;6.30;99.90
19880;DHT22;10102;50.828;4.416;2022-12-07T06:36:55;6.50;99.90
19880;DHT22;10102;50.828;4.416;2022-12-07T06:39:26;6.40;99.90
19880;DHT22;10102;50.828;4.416;2022-12-07T06:44:19;6.30;99.90
19880;DHT22;10102;50.828;4.416;2022-12-07T06:46:45;6.20;99.90
19880;DHT22;10102;50.828;4.416;2022-12-07T06:49:11;6.30;99.90
19880;DHT22;10102;50.828;4.416;2022-12-07T06:51:38;6.40;99.90
19880;DHT22;10102;50.828;4.416;2022-12-07T06:54:09;6.50;99.90
19880;DHT22;10102;50.828;4.416;2022-12-07T06:56:35;6.60;99.90
19880;DHT22;10102;50.828;4.416;2022-12-07T06:59:03;6.80;99.90
19880;DHT22;10102;50.828;4.416;2022-12-07T07:01:34;6.80;99.90
19880;DHT22;10102;50.828;4.416;2022-12-07T07:04:01;6.80;99.90
19880;DHT22;10102;50.828;4.416;2022-12-07T07:08:53;6.90;99.90
19880;DHT22;10102;50.828;4.416;2022-12-07T07:11:19;6.90;99.90
19880;DHT22;10102;50.828;4.416;2022-12-07T07:13:45;6.90;99.90
19880;DHT22;10102;50.828;4.416;2022-12-07T07:18:37;6.90;99.90
19880;DHT22;10102;50.828;4.416;2022-12-07T07:21:04;6.90;99.90
19880;DHT22;10102;50.828;4.416;2022-12-07T07:23:30;7.00;99.90
19880;DHT22;10102;50.828;4.416;2022-12-07T07:30:48;7.00;99.90
19880;DHT22;10102;50.828;4.416;2022-12-07T07:33:14;7.00;99.90
19880;DHT22;10102;50.828;4.416;2022-12-07T07:35:40;6.80;99.90
19880;DHT22;10102;50.828;4.416;2022-12-07T07:38:06;6.80;99.90
19880;DHT22;10102;50.828;4.416;2022-12-07T07:42:58;6.70;99.90
19880;DHT22;10102;50.828;4.416;2022-12-07T07:45:25;6.60;99.90
19880;DHT22;10102;50.828;4.416;2022-12-07T07:50:18;6.60;99.90
19880;DHT22;10102;50.828;4.416;2022-12-07T07:52:44;6.60;99.90
19880;DHT22;10102;50.828;4.416;2022-12-07T07:55:10;6.70;99.90
19880;DHT22;10102;50.828;4.416;2022-12-07T07:57:37;6.60;99.90
19880;DHT22;10102;50.828;4.416;2022-12-07T08:00:09;6.60;99.90
19880;DHT22;10102;50.828;4.416;2022-12-07T08:05:01;6.60;99.90
19880;DHT22;10102;50.828;4.416;2022-12-07T08:07:28;6.60;99.90
19880;DHT22;10102;50.828;4.416;2022-12-07T08:09:53;6.60;99.90
19880;DHT22;10102;50.828;4.416;2022-12-07T08:12:19;6.60;99.90
19880;DHT22;10102;50.828;4.416;2022-12-07T08:14:45;6.60;99.90
19880;DHT22;10102;50.828;4.416;2022-12-07T08:17:11;6.50;99.90
19880;DHT22;10102;50.828;4.416;2022-12-07T08:22:04;6.60;99.90
19880;DHT22;10102;50.828;4.416;2022-12-07T08:24:30;6.50;99.90
19880;DHT22;10102;50.828;4.416;2022-12-07T08:26:57;6.60;99.90
19880;DHT22;10102;50.828;4.416;2022-12-07T08:29:24;6.60;99.90
19880;DHT22;10102;50.828;4.416;2022-12-07T08:31:50;6.60;99.90
19880;DHT22;10102;50.828;4.416;2022-12-07T08:34:15;6.60;99.90
19880;DHT22;10102;50.828;4.416;2022-12-07T08:36:41;6.50;99.90
19880;DHT22;10102;50.828;4.416;2022-12-07T08:39:07;6.50;99.90
19880;DHT22;10102;50.828;4.416;2022-12-07T08:41:32;6.50;99.90
19880;DHT22;10102;50.828;4.416;2022-12-07T08:43:58;6.50;99.90
19880;DHT22;10102;50.828;4.416;2022-12-07T08:46:39;6.60;99.90
19880;DHT22;10102;50.828;4.416;2022-12-07T08:49:18;6.20;99.90
19880;DHT22;10102;50.828;4.416;2022-12-07T08:51:45;6.50;99.90
19880;DHT22;10102;50.828;4.416;2022-12-07T08:54:14;6.60;99.90
19880;DHT22;10102;50.828;4.416;2022-12-07T08:56:41;6.40;99.90
19880;DHT22;10102;50.828;4.416;2022-12-07T08:59:08;6.50;99.90
19880;DHT22;10102;50.828;4.416;2022-12-07T09:01:34;6.70;99.90
19880;DHT22;10102;50.828;4.416;2022-12-07T09:04:00;6.90;99.90
19880;DHT22;10102;50.828;4.416;2022-12-07T09:06:25;6.90;99.90
19880;DHT22;10102;50.828;4.416;2022-12-07T09:08:55;7.20;99.90
19880;DHT22;10102;50.828;4.416;2022-12-07T09:11:22;7.20;99.90
19880;DHT22;10102;50.828;4.416;2022-12-07T09:13:48;7.40;99.90
19880;DHT22;10102;50.828;4.416;2022-12-07T09:16:14;7.80;99.90
19880;DHT22;10102;50.828;4.416;2022-12-07T09:18:39;7.50;99.90
19880;DHT22;10102;50.828;4.416;2022-12-07T09:21:05;7.60;99.90
19880;DHT22;10102;50.828;4.416;2022-12-07T09:23:31;7.70;99.90
19880;DHT22;10102;50.828;4.416;2022-12-07T09:26:04;7.70;99.90
19880;DHT22;10102;50.828;4.416;2022-12-07T09:28:33;7.80;99.90
19880;DHT22;10102;50.828;4.416;2022-12-07T09:30:59;7.90;99.90
19880;DHT22;10102;50.828;4.416;2022-12-07T09:33:24;7.80;99.90
19880;DHT22;10102;50.828;4.416;2022-12-07T09:35:51;7.80;99.90
19880;DHT22;10102;50.828;4.416;2022-12-07T09:38:19;8.00;99.90
19880;DHT22;10102;50.828;4.416;2022-12-07T09:40:45;8.20;99.90
19880;DHT22;10102;50.828;4.416;2022-12-07T09:43:20;8.40;99.90
19880;DHT22;10102;50.828;4.416;2022-12-07T09:45:48;8.60;99.90
19880;DHT22;10102;50.828;4.416;2022-12-07T09:48:21;8.90;99.90
19880;DHT22;10102;50.828;4.416;2022-12-07T09:50:49;9.70;99.90
19880;DHT22;10102;50.828;4.416;2022-12-07T09:53:37;8.90;99.90
19880;DHT22;10102;50.828;4.416;2022-12-07T09:56:03;9.00;99.90
19880;DHT22;10102;50.828;4.416;2022-12-07T09:58:30;8.60;99.90
19880;DHT22;10102;50.828;4.416;2022-12-07T10:03:52;8.50;99.90
19880;DHT22;10102;50.828;4.416;2022-12-07T10:06:18;8.20;99.90
19880;DHT22;10102;50.828;4.416;2022-12-07T10:08:44;8.10;99.90
19880;DHT22;10102;50.828;4.416;2022-12-07T10:11:11;8.40;99.90
19880;DHT22;10102;50.828;4.416;2022-12-07T10:13:40;8.70;99.90
19880;DHT22;10102;50.828;4.416;2022-12-07T10:16:06;8.30;99.90
19880;DHT22;10102;50.828;4.416;2022-12-07T10:18:50;8.30;99.90
19880;DHT22;10102;50.828;4.416;2022-12-07T10:21:24;8.50;99.90
19880;DHT22;10102;50.828;4.416;2022-12-07T10:24:04;8.50;99.90
19880;DHT22;10102;50.828;4.416;2022-12-07T10:29:27;8.50;99.90
19880;DHT22;10102;50.828;4.416;2022-12-07T10:31:59;8.10;99.90
19880;DHT22;10102;50.828;4.416;2022-12-07T10:34:34;8.20;99.90
19880;DHT22;10102;50.828;4.416;2022-12-07T10:42:20;8.50;99.90
19880;DHT22;10102;50.828;4.416;2022-12-07T10:44:48;8.70;99.90
19880;DHT22;10102;50.828;4.416;2022-12-07T10:55:16;9.00;99.90
19880;DHT22;10102;50.828;4.416;2022-12-07T11:03:49;8.60;99.90
19880;DHT22;10102;50.828;4.416;2022-12-07T11:06:33;8.70;99.90
19880;DHT22;10102;50.828;4.416;2022-12-07T11:12:01;9.20;99.90
19880;DHT22;10102;50.828;4.416;2022-12-07T11:14:43;9.40;99.90
19880;DHT22;10102;50.828;4.416;2022-12-07T11:17:25;9.40;99.90
19880;DHT22;10102;50.828;4.416;2022-12-07T11:25:32;9.50;99.90
19880;DHT22;10102;50.828;4.416;2022-12-07T11:31:16;9.30;99.90
19880;DHT22;10102;50.828;4.416;2022-12-07T11:34:08;9.20;99.90
19880;DHT22;10102;50.828;4.416;2022-12-07T11:36:48;9.10;99.90
19880;DHT22;10102;50.828;4.416;2022-12-07T11:41:45;8.60;99.90
19880;DHT22;10102;50.828;4.416;2022-12-07T11:44:42;8.50;99.90
19880;DHT22;10102;50.828;4.416;2022-12-07T11:47:17;9.60;99.90
19880;DHT22;10102;50.828;4.416;2022-12-07T11:49:50;10.00;99.90
19880;DHT22;10102;50.828;4.416;2022-12-07T11:52:29;10.20;99.90
19880;DHT22;10102;50.828;4.416;2022-12-07T11:54:57;11.30;99.90
19880;DHT22;10102;50.828;4.416;2022-12-07T11:57:44;12.90;99.90
19880;DHT22;10102;50.828;4.416;2022-12-07T12:00:16;13.10;99.90
19880;DHT22;10102;50.828;4.416;2022-12-07T12:02:49;13.50;99.90
19880;DHT22;10102;50.828;4.416;2022-12-07T12:05:19;14.20;99.90
19880;DHT22;10102;50.828;4.416;2022-12-07T12:07:50;14.60;99.90
19880;DHT22;10102;50.828;4.416;2022-12-07T12:10:27;14.80;99.90
19880;DHT22;10102;50.828;4.416;2022-12-07T12:25:50;12.10;99.90
19880;DHT22;10102;50.828;4.416;2022-12-07T12:28:27;11.80;99.90
19880;DHT22;10102;50.828;4.416;2022-12-07T12:33:50;10.10;99.90
19880;DHT22;10102;50.828;4.416;2022-12-07T12:44:02;10.00;99.90
19880;DHT22;10102;50.828;4.416;2022-12-07T12:54:28;9.40;99.90
19880;DHT22;10102;50.828;4.416;2022-12-07T13:02:35;9.20;99.90
19880;DHT22;10102;50.828;4.416;2022-12-07T13:21:02;9.60;99.90
19880;DHT22;10102;50.828;4.416;2022-12-07T13:28:48;9.80;99.90
19880;DHT22;10102;50.828;4.416;2022-12-07T13:31:20;9.90;99.90
19880;DHT22;10102;50.828;4.416;2022-12-07T13:33:48;10.40;99.90
19880;DHT22;10102;50.828;4.416;2022-12-07T13:36:25;10.10;99.90
19880;DHT22;10102;50.828;4.416;2022-12-07T13:38:56;10.40;99.90
19880;DHT22;10102;50.828;4.416;2022-12-07T13:41:25;10.10;99.90
19880;DHT22;10102;50.828;4.416;2022-12-07T13:44:09;10.00;99.90
19880;DHT22;10102;50.828;4.416;2022-12-07T13:49:33;9.80;99.90
19880;DHT22;10102;50.828;4.416;2022-12-07T13:52:21;9.60;99.90
19880;DHT22;10102;50.828;4.416;2022-12-07T13:55:13;9.20;99.90
19880;DHT22;10102;50.828;4.416;2022-12-07T13:57:40;9.50;99.90
19880;DHT22;10102;50.828;4.416;2022-12-07T14:00:15;9.00;99.90
19880;DHT22;10102;50.828;4.416;2022-12-07T14:05:32;9.00;99.90
19880;DHT22;10102;50.828;4.416;2022-12-07T14:08:00;8.60;99.90
19880;DHT22;10102;50.828;4.416;2022-12-07T14:10:33;8.90;99.90
19880;DHT22;10102;50.828;4.416;2022-12-07T14:13:01;9.00;99.90
19880;DHT22;10102;50.828;4.416;2022-12-07T14:15:32;8.90;99.90
19880;DHT22;10102;50.828;4.416;2022-12-07T14:18:00;8.80;99.90
19880;DHT22;10102;50.828;4.416;2022-12-07T14:20:40;8.50;99.90
19880;DHT22;10102;50.828;4.416;2022-12-07T14:23:23;8.80;99.90
19880;DHT22;10102;50.828;4.416;2022-12-07T14:25:51;8.50;99.90
19880;DHT22;10102;50.828;4.416;2022-12-07T14:28:33;8.40;99.90
19880;DHT22;10102;50.828;4.416;2022-12-07T14:31:00;8.40;99.90
19880;DHT22;10102;50.828;4.416;2022-12-07T14:33:27;8.40;99.90
19880;DHT22;10102;50.828;4.416;2022-12-07T14:35:52;8.40;99.90
19880;DHT22;10102;50.828;4.416;2022-12-07T14:38:23;8.50;99.90
19880;DHT22;10102;50.828;4.416;2022-12-07T14:40:51;8.60;99.90
19880;DHT22;10102;50.828;4.416;2022-12-07T14:43:18;8.60;99.90
19880;DHT22;10102;50.828;4.416;2022-12-07T14:45:44;8.50;99.90
19880;DHT22;10102;50.828;4.416;2022-12-07T14:48:14;9.00;99.90
19880;DHT22;10102;50.828;4.416;2022-12-07T14:50:52;8.60;99.90
19880;DHT22;10102;50.828;4.416;2022-12-07T14:53:22;8.40;99.90
19880;DHT22;10102;50.828;4.416;2022-12-07T14:55:52;9.50;99.90
19880;DHT22;10102;50.828;4.416;2022-12-07T14:58:18;8.50;99.90
19880;DHT22;10102;50.828;4.416;2022-12-07T15:00:44;8.50;99.90
19880;DHT22;10102;50.828;4.416;2022-12-07T15:03:10;8.20;99.90
19880;DHT22;10102;50.828;4.416;2022-12-07T15:05:36;8.50;99.90
19880;DHT22;10102;50.828;4.416;2022-12-07T15:08:03;8.50;99.90
19880;DHT22;10102;50.828;4.416;2022-12-07T15:10:31;8.50;99.90
19880;DHT22;10102;50.828;4.416;2022-12-07T15:12:59;8.40;99.90
19880;DHT22;10102;50.828;4.416;2022-12-07T15:15:46;8.40;99.90
19880;DHT22;10102;50.828;4.416;2022-12-07T15:18:12;8.50;99.90
19880;DHT22;10102;50.828;4.416;2022-12-07T15:20:37;8.50;99.90
19880;DHT22;10102;50.828;4.416;2022-12-07T15:23:03;12.10;99.90
19880;DHT22;10102;50.828;4.416;2022-12-07T15:25:29;8.60;99.90
19880;DHT22;10102;50.828;4.416;2022-12-07T15:27:54;8.50;99.90
19880;DHT22;10102;50.828;4.416;2022-12-07T15:30:20;8.60;99.90
19880;DHT22;10102;50.828;4.416;2022-12-07T15:32:49;8.60;99.90
19880;DHT22;10102;50.828;4.416;2022-12-07T15:35:15;8.50;99.90
19880;DHT22;10102;50.828;4.416;2022-12-07T15:37:44;8.50;99.90
19880;DHT22;10102;50.828;4.416;2022-12-07T15:40:10;8.50;99.90
19880;DHT22;10102;50.828;4.416;2022-12-07T15:45:04;8.50;99.90
19880;DHT22;10102;50.828;4.416;2022-12-07T15:47:41;8.50;99.90
19880;DHT22;10102;50.828;4.416;2022-12-07T15:50:13;8.60;99.90
19880;DHT22;10102;50.828;4.416;2022-12-07T15:52:39;8.40;99.90
19880;DHT22;10102;50.828;4.416;2022-12-07T15:55:05;8.50;99.90
19880;DHT22;10102;50.828;4.416;2022-12-07T15:57:32;8.30;99.90
19880;DHT22;10102;50.828;4.416;2022-12-07T16:02:24;8.00;99.90
19880;DHT22;10102;50.828;4.416;2022-12-07T16:04:51;8.00;99.90
19880;DHT22;10102;50.828;4.416;2022-12-07T16:07:17;8.10;99.90
19880;DHT22;10102;50.828;4.416;2022-12-07T16:09:45;8.10;99.90
19880;DHT22;10102;50.828;4.416;2022-12-07T16:12:12;7.90;99.90
19880;DHT22;10102;50.828;4.416;2022-12-07T16:14:39;8.10;99.90
19880;DHT22;10102;50.828;4.416;2022-12-07T16:17:05;7.90;99.90
19880;DHT22;10102;50.828;4.416;2022-12-07T16:19:32;7.90;99.90
19880;DHT22;10102;50.828;4.416;2022-12-07T16:21:57;7.90;99.90
19880;DHT22;10102;50.828;4.416;2022-12-07T16:24:24;8.00;99.90
19880;DHT22;10102;50.828;4.416;2022-12-07T16:29:17;7.90;99.90
19880;DHT22;10102;50.828;4.416;2022-12-07T16:31:43;8.10;99.90
19880;DHT22;10102;50.828;4.416;2022-12-07T16:34:09;7.70;99.90
19880;DHT22;10102;50.828;4.416;2022-12-07T16:36:34;9.70;99.90
19880;DHT22;10102;50.828;4.416;2022-12-07T16:39:01;9.20;99.90
19880;DHT22;10102;50.828;4.416;2022-12-07T16:41:27;8.10;99.90
19880;DHT22;10102;50.828;4.416;2022-12-07T16:43:53;7.80;99.90
19880;DHT22;10102;50.828;4.416;2022-12-07T16:46:18;4.80;99.90
19880;DHT22;10102;50.828;4.416;2022-12-07T16:48:44;7.90;99.90
19880;DHT22;10102;50.828;4.416;2022-12-07T16:51:12;7.80;99.90
19880;DHT22;10102;50.828;4.416;2022-12-07T16:53:40;7.80;99.90
19880;DHT22;10102;50.828;4.416;2022-12-07T16:56:14;7.80;99.90
19880;DHT22;10102;50.828;4.416;2022-12-07T16:58:43;7.70;99.90
19880;DHT22;10102;50.828;4.416;2022-12-07T17:01:15;7.80;99.90
19880;DHT22;10102;50.828;4.416;2022-12-07T17:03:42;7.90;99.90
19880;DHT22;10102;50.828;4.416;2022-12-07T17:06:19;8.00;99.90
19880;DHT22;10102;50.828;4.416;2022-12-07T17:08:45;7.90;99.90
19880;DHT22;10102;50.828;4.416;2022-12-07T17:11:13;7.90;99.90
19880;DHT22;10102;50.828;4.416;2022-12-07T17:13:39;8.10;99.90
19880;DHT22;10102;50.828;4.416;2022-12-07T17:16:23;8.10;99.90
19880;DHT22;10102;50.828;4.416;2022-12-07T17:18:49;8.10;99.90
19880;DHT22;10102;50.828;4.416;2022-12-07T17:21:14;8.00;99.90
19880;DHT22;10102;50.828;4.416;2022-12-07T17:23:40;8.20;99.90
19880;DHT22;10102;50.828;4.416;2022-12-07T17:26:08;8.20;99.90
19880;DHT22;10102;50.828;4.416;2022-12-07T17:28:35;7.90;99.90
19880;DHT22;10102;50.828;4.416;2022-12-07T17:31:01;7.80;99.90
19880;DHT22;10102;50.828;4.416;2022-12-07T17:33:30;7.70;99.90
19880;DHT22;10102;50.828;4.416;2022-12-07T17:35:56;7.90;99.90
19880;DHT22;10102;50.828;4.416;2022-12-07T17:38:21;7.90;99.90
19880;DHT22;10102;50.828;4.416;2022-12-07T17:40:47;7.90;99.90
19880;DHT22;10102;50.828;4.416;2022-12-07T17:43:13;7.90;99.90
19880;DHT22;10102;50.828;4.416;2022-12-07T17:45:38;7.90;99.90
19880;DHT22;10102;50.828;4.416;2022-12-07T17:48:04;7.90;99.90
19880;DHT22;10102;50.828;4.416;2022-12-07T17:50:30;7.40;99.90
19880;DHT22;10102;50.828;4.416;2022-12-07T17:53:14;7.90;99.90
19880;DHT22;10102;50.828;4.416;2022-12-07T17:55:40;7.80;99.90
19880;DHT22;10102;50.828;4.416;2022-12-07T17:58:05;7.80;99.90
19880;DHT22;10102;50.828;4.416;2022-12-07T18:00:32;7.70;99.90
19880;DHT22;10102;50.828;4.416;2022-12-07T18:03:04;7.60;99.90
19880;DHT22;10102;50.828;4.416;2022-12-07T18:05:31;7.70;99.90
19880;DHT22;10102;50.828;4.416;2022-12-07T18:07:56;7.60;99.90
19880;DHT22;10102;50.828;4.416;2022-12-07T18:10:22;7.70;99.90
19880;DHT22;10102;50.828;4.416;2022-12-07T18:12:48;7.60;99.90
19880;DHT22;10102;50.828;4.416;2022-12-07T18:15:13;7.60;99.90
19880;DHT22;10102;50.828;4.416;2022-12-07T18:17:39;7.70;99.90
19880;DHT22;10102;50.828;4.416;2022-12-07T18:20:07;7.70;99.90
19880;DHT22;10102;50.828;4.416;2022-12-07T18:22:33;7.70;99.90
19880;DHT22;10102;50.828;4.416;2022-12-07T18:24:58;7.70;99.90
19880;DHT22;10102;50.828;4.416;2022-12-07T18:27:25;7.80;99.90
19880;DHT22;10102;50.828;4.416;2022-12-07T18:29:50;7.70;99.90
19880;DHT22;10102;50.828;4.416;2022-12-07T18:32:17;7.60;99.90
19880;DHT22;10102;50.828;4.416;2022-12-07T18:34:42;7.60;99.90
19880;DHT22;10102;50.828;4.416;2022-12-07T18:37:08;7.40;99.90
19880;DHT22;10102;50.828;4.416;2022-12-07T18:39:34;7.40;99.90
19880;DHT22;10102;50.828;4.416;2022-12-07T18:41:59;7.30;99.90